createdAt,value
2023-12-05T00:00:35.469Z,20.25
2023-12-05T00:03:01.910Z,18.63
2023-12-05T00:05:28.414Z,19.70
2023-12-05T00:07:55.508Z,19.08
2023-12-05T00:10:21.769Z,21.05
2023-12-05T00:12:48.115Z,18.83
2023-12-05T00:15:14.398Z,19.48
2023-12-05T00:17:40.737Z,20.40
2023-12-05T00:20:07.047Z,20.90
2023-12-05T00:22:33.472Z,19.30
2023-12-05T00:24:59.726Z,20.67
2023-12-05T00:27:26.818Z,20.27
2023-12-05T00:29:53.477Z,19.90
2023-12-05T00:32:19.819Z,19.92
2023-12-05T00:34:46.107Z,19.98
2023-12-05T00:37:12.553Z,21.42
2023-12-05T00:39:38.909Z,20.50
2023-12-05T00:42:05.394Z,20.20
2023-12-05T00:44:31.724Z,19.25
2023-12-05T00:46:58.107Z,20.63
2023-12-05T00:49:24.540Z,20.92
2023-12-05T00:51:50.929Z,20.55
2023-12-05T00:54:17.304Z,20.98
2023-12-05T00:56:43.609Z,20.38
2023-12-05T00:59:09.884Z,21.67
2023-12-05T01:01:36.163Z,21.38
2023-12-05T01:04:02.583Z,20.45
2023-12-05T01:06:29.023Z,20.88
2023-12-05T01:08:55.327Z,21.10
2023-12-05T01:11:21.582Z,20.83
2023-12-05T01:13:47.952Z,20.17
2023-12-05T01:16:14.233Z,20.70
2023-12-05T01:18:40.616Z,19.77
2023-12-05T01:21:06.933Z,22.30
2023-12-05T01:23:33.320Z,19.65
2023-12-05T01:25:59.595Z,20.75
2023-12-05T01:28:25.993Z,21.65
2023-12-05T01:30:52.384Z,20.63
2023-12-05T01:33:18.850Z,21.30
2023-12-05T01:35:45.197Z,20.55
2023-12-05T01:38:11.485Z,20.38
2023-12-05T01:40:38.114Z,21.13
2023-12-05T01:43:04.364Z,20.58
2023-12-05T01:45:30.700Z,21.48
2023-12-05T01:47:57.079Z,20.42
2023-12-05T01:50:24.032Z,20.63
2023-12-05T01:52:50.481Z,21.40
2023-12-05T01:55:16.769Z,21.05
2023-12-05T01:57:43.045Z,20.33
2023-12-05T02:00:09.324Z,21.30
2023-12-05T02:02:35.559Z,20.83
2023-12-05T02:05:02.152Z,20.15
2023-12-05T02:07:28.497Z,21.25
2023-12-05T02:09:55.299Z,20.15
2023-12-05T02:12:32.489Z,20.67
2023-12-05T02:14:58.954Z,20.48
2023-12-05T02:17:25.265Z,21.75
2023-12-05T02:19:51.707Z,21.65
2023-12-05T02:22:17.947Z,20.20
2023-12-05T02:24:44.295Z,20.67
2023-12-05T02:27:10.601Z,21.50
2023-12-05T02:29:36.940Z,19.63
2023-12-05T02:32:03.208Z,20.88
2023-12-05T02:34:29.578Z,20.15
2023-12-05T02:36:55.909Z,20.35
2023-12-05T02:39:22.253Z,20.67
2023-12-05T02:41:48.632Z,20.23
2023-12-05T02:44:14.989Z,21.58
2023-12-05T02:46:41.296Z,20.17
2023-12-05T02:49:07.753Z,20.85
2023-12-05T02:51:34.261Z,20.48
2023-12-05T02:54:00.592Z,21.02
2023-12-05T02:56:26.893Z,20.92
2023-12-05T02:58:53.150Z,20.50
2023-12-05T03:01:19.737Z,20.25
2023-12-05T03:03:46.154Z,20.17
2023-12-05T03:06:12.858Z,19.95
2023-12-05T03:08:39.125Z,20.15
2023-12-05T03:11:09.692Z,19.55
2023-12-05T03:13:36.429Z,19.95
2023-12-05T03:16:02.688Z,19.15
2023-12-05T03:18:29.147Z,21.65
2023-12-05T03:20:55.650Z,21.23
2023-12-05T03:23:22.037Z,20.83
2023-12-05T03:25:48.400Z,19.77
2023-12-05T03:28:14.646Z,20.45
2023-12-05T03:30:40.975Z,20.15
2023-12-05T03:33:07.309Z,20.35
2023-12-05T03:35:33.605Z,20.20
2023-12-05T03:37:59.872Z,19.77
2023-12-05T03:40:27.011Z,20.65
2023-12-05T03:42:53.290Z,20.45
2023-12-05T03:45:19.623Z,20.13
2023-12-05T03:47:45.997Z,19.70
2023-12-05T03:50:12.539Z,20.15
2023-12-05T03:52:38.805Z,18.42
2023-12-05T03:55:05.190Z,20.13
2023-12-05T03:57:31.470Z,20.20
2023-12-05T03:59:57.738Z,18.35
2023-12-05T04:02:24.039Z,19.63
2023-12-05T04:04:50.479Z,19.50
2023-12-05T04:07:16.862Z,19.55
2023-12-05T04:09:43.160Z,20.75
2023-12-05T04:12:09.468Z,20.15
2023-12-05T04:14:40.562Z,18.80
2023-12-05T04:17:07.032Z,19.38
2023-12-05T04:19:33.440Z,19.63
2023-12-05T04:21:59.979Z,20.38
2023-12-05T04:24:26.349Z,19.27
2023-12-05T04:26:52.710Z,19.80
2023-12-05T04:29:18.974Z,19.92
2023-12-05T04:31:45.257Z,19.98
2023-12-05T04:34:11.820Z,20.10
2023-12-05T04:36:38.165Z,19.90
2023-12-05T04:39:04.431Z,19.27
2023-12-05T04:41:30.828Z,19.27
2023-12-05T04:43:57.274Z,19.40
2023-12-05T04:46:23.751Z,19.67
2023-12-05T04:48:50.244Z,20.00
2023-12-05T04:51:16.651Z,19.35
2023-12-05T04:53:43.107Z,20.10
2023-12-05T04:56:09.386Z,19.98
2023-12-05T04:58:36.014Z,19.65
2023-12-05T05:01:02.347Z,18.98
2023-12-05T05:03:28.884Z,18.13
2023-12-05T05:05:55.209Z,20.77
2023-12-05T05:08:21.663Z,20.38
2023-12-05T05:10:48.152Z,18.98
2023-12-05T05:13:14.417Z,18.98
2023-12-05T05:15:40.830Z,18.95
2023-12-05T05:18:07.170Z,19.00
2023-12-05T05:20:33.509Z,19.25
2023-12-05T05:22:59.819Z,18.27
2023-12-05T05:25:26.135Z,19.55
2023-12-05T05:27:52.482Z,18.42
2023-12-05T05:30:18.860Z,20.30
2023-12-05T05:32:45.325Z,19.15
2023-12-05T05:35:12.062Z,19.13
2023-12-05T05:37:38.533Z,18.52
2023-12-05T05:40:04.831Z,18.77
2023-12-05T05:42:31.164Z,18.42
2023-12-05T05:44:57.486Z,18.67
2023-12-05T05:47:24.059Z,18.95
2023-12-05T05:49:50.444Z,18.60
2023-12-05T05:52:16.833Z,20.48
2023-12-05T05:54:43.197Z,19.35
2023-12-05T05:57:09.508Z,18.85
2023-12-05T05:59:35.862Z,18.23
2023-12-05T06:02:02.244Z,18.35
2023-12-05T06:04:28.751Z,18.50
2023-12-05T06:06:55.603Z,17.55
2023-12-05T06:09:22.137Z,19.40
2023-12-05T06:11:48.631Z,19.90
2023-12-05T06:14:14.904Z,18.52
2023-12-05T06:16:41.463Z,18.95
2023-12-05T06:19:07.826Z,19.70
2023-12-05T06:21:34.180Z,19.10
2023-12-05T06:24:02.543Z,19.08
2023-12-05T06:26:28.965Z,18.85
2023-12-05T06:28:55.225Z,19.95
2023-12-05T06:31:22.324Z,18.55
2023-12-05T06:33:48.914Z,19.00
2023-12-05T06:36:15.429Z,17.73
2023-12-05T06:38:41.680Z,19.45
2023-12-05T06:41:08.009Z,19.13
2023-12-05T06:43:34.235Z,19.42
2023-12-05T06:46:08.561Z,19.33
2023-12-05T06:48:34.927Z,19.80
2023-12-05T06:51:01.233Z,18.42
2023-12-05T06:53:27.501Z,18.60
2023-12-05T06:55:53.977Z,19.25
2023-12-05T06:58:20.243Z,18.70
2023-12-05T07:00:46.520Z,19.35
2023-12-05T07:03:12.852Z,18.05
2023-12-05T07:05:39.247Z,18.60
2023-12-05T07:08:05.593Z,19.15
2023-12-05T07:10:32.009Z,20.08
2023-12-05T07:12:58.309Z,19.27
2023-12-05T07:15:24.667Z,19.92
2023-12-05T07:17:51.033Z,18.50
2023-12-05T07:20:17.332Z,21.27
2023-12-05T07:22:43.613Z,19.77
2023-12-05T07:25:09.922Z,19.40
2023-12-05T07:27:42.349Z,19.58
2023-12-05T07:30:08.671Z,19.38
2023-12-05T07:32:35.058Z,19.17
2023-12-05T07:35:01.555Z,19.92
2023-12-05T07:37:27.875Z,19.80
2023-12-05T07:39:54.151Z,20.40
2023-12-05T07:42:20.459Z,20.65
2023-12-05T07:44:46.758Z,20.83
2023-12-05T07:47:13.056Z,20.48
2023-12-05T07:49:39.336Z,20.67
2023-12-05T07:52:05.767Z,21.60
2023-12-05T07:54:32.185Z,22.50
2023-12-05T07:56:58.514Z,22.98
2023-12-05T07:59:25.697Z,23.35
2023-12-05T08:01:52.010Z,23.40
2023-12-05T08:04:18.377Z,22.55
2023-12-05T08:06:44.699Z,24.73
2023-12-05T08:09:10.973Z,22.98
2023-12-05T08:11:37.284Z,25.05
2023-12-05T08:14:03.619Z,24.08
2023-12-05T08:16:29.871Z,23.70
2023-12-05T08:18:56.235Z,23.25
2023-12-05T08:21:23.636Z,23.67
2023-12-05T08:23:49.942Z,24.48
2023-12-05T08:26:16.194Z,23.00
2023-12-05T08:28:42.496Z,23.52
2023-12-05T08:31:08.745Z,22.85
2023-12-05T08:33:35.148Z,24.52
2023-12-05T08:36:01.545Z,25.70
2023-12-05T08:38:27.844Z,23.33
2023-12-05T08:40:54.181Z,23.13
2023-12-05T08:43:20.450Z,23.65
2023-12-05T08:45:46.781Z,22.17
2023-12-05T08:48:13.114Z,23.75
2023-12-05T08:50:39.439Z,25.23
2023-12-05T08:53:05.739Z,24.80
2023-12-05T08:55:32.032Z,23.73
2023-12-05T08:57:58.565Z,23.83
2023-12-05T09:00:24.972Z,22.30
2023-12-05T09:02:51.264Z,22.23
2023-12-05T09:05:17.625Z,22.85
2023-12-05T09:07:44.983Z,24.33
2023-12-05T09:10:12.691Z,24.23
2023-12-05T09:12:38.990Z,23.38
2023-12-05T09:15:05.287Z,23.27
2023-12-05T09:17:31.681Z,25.00
2023-12-05T09:19:58.026Z,23.13
2023-12-05T09:22:24.415Z,24.88
2023-12-05T09:24:50.766Z,25.10
2023-12-05T09:27:17.033Z,24.58
2023-12-05T09:29:50.114Z,24.05
2023-12-05T09:32:17.405Z,23.73
2023-12-05T09:34:50.302Z,25.85
2023-12-05T09:37:16.606Z,23.95
2023-12-05T09:39:42.932Z,23.13
2023-12-05T09:42:09.603Z,24.63
2023-12-05T09:44:36.047Z,24.27
2023-12-05T09:47:02.333Z,24.13
2023-12-05T09:49:28.765Z,23.05
2023-12-05T09:51:55.949Z,25.77
2023-12-05T09:54:22.317Z,25.45
2023-12-05T09:56:48.800Z,24.40
2023-12-05T09:59:15.166Z,24.42
2023-12-05T10:01:41.450Z,26.10
2023-12-05T10:04:07.862Z,24.55
2023-12-05T10:06:34.393Z,25.10
2023-12-05T10:09:00.651Z,25.63
2023-12-05T10:11:27.100Z,25.15
2023-12-05T10:13:53.391Z,23.35
2023-12-05T10:16:19.645Z,24.95
2023-12-05T10:18:46.082Z,25.20
2023-12-05T10:21:12.538Z,24.15
2023-12-05T10:23:39.122Z,24.80
2023-12-05T10:26:05.436Z,23.40
2023-12-05T10:28:31.791Z,23.25
2023-12-05T10:31:07.265Z,25.17
2023-12-05T10:33:33.765Z,23.58
2023-12-05T10:36:00.291Z,23.90
2023-12-05T10:38:26.804Z,24.00
2023-12-05T10:40:53.173Z,24.25
2023-12-05T10:43:19.439Z,25.10
2023-12-05T10:45:55.894Z,22.40
2023-12-05T10:48:22.333Z,23.95
2023-12-05T10:50:50.726Z,25.25
2023-12-05T10:53:17.232Z,23.38
2023-12-05T10:55:43.522Z,22.77
2023-12-05T10:58:09.795Z,23.98
2023-12-05T11:00:36.130Z,23.10
2023-12-05T11:03:02.544Z,22.48
2023-12-05T11:05:28.828Z,22.98
2023-12-05T11:07:55.087Z,23.58
2023-12-05T11:10:21.383Z,23.23
2023-12-05T11:12:47.707Z,21.95
2023-12-05T11:15:14.031Z,23.40
2023-12-05T11:17:40.505Z,23.17
2023-12-05T11:20:06.864Z,22.02
2023-12-05T11:22:33.230Z,22.63
2023-12-05T11:24:59.528Z,23.73
2023-12-05T11:27:25.902Z,23.73
2023-12-05T11:29:52.371Z,25.05
2023-12-05T11:32:18.670Z,26.92
2023-12-05T11:34:45.112Z,28.10
2023-12-05T11:37:11.564Z,29.63
2023-12-05T11:39:37.891Z,29.05
2023-12-05T11:42:04.186Z,29.60
2023-12-05T11:44:30.603Z,31.08
2023-12-05T11:46:56.903Z,32.35
2023-12-05T11:49:23.255Z,33.03
2023-12-05T11:51:49.635Z,31.52
2023-12-05T11:54:22.846Z,31.55
2023-12-05T11:56:49.122Z,32.17
2023-12-05T11:59:15.404Z,31.02
2023-12-05T12:01:42.515Z,31.58
2023-12-05T12:04:09.459Z,31.15
2023-12-05T12:06:35.904Z,30.77
2023-12-05T12:09:02.199Z,31.27
2023-12-05T12:11:28.484Z,31.35
2023-12-05T12:13:54.769Z,29.58
2023-12-05T12:16:21.051Z,32.70
2023-12-05T12:18:53.452Z,30.75
2023-12-05T12:21:21.613Z,31.33
2023-12-05T12:23:49.519Z,29.35
2023-12-05T12:26:16.822Z,29.77
2023-12-05T12:28:43.150Z,28.48
2023-12-05T12:31:09.574Z,31.52
2023-12-05T12:33:36.108Z,30.65
2023-12-05T12:36:02.744Z,34.70
2023-12-05T12:38:29.019Z,37.10
2023-12-05T12:40:55.397Z,37.47
2023-12-05T12:43:21.747Z,37.65
2023-12-05T12:45:48.104Z,36.30
2023-12-05T12:48:24.547Z,39.80
2023-12-05T12:50:50.919Z,39.72
2023-12-05T12:53:17.185Z,40.80
2023-12-05T12:55:43.468Z,42.60
2023-12-05T12:58:09.767Z,42.75
2023-12-05T13:00:37.835Z,45.10
2023-12-05T13:03:04.599Z,44.95
2023-12-05T13:05:31.003Z,45.10
2023-12-05T13:07:57.315Z,44.40
2023-12-05T13:10:23.583Z,47.90
2023-12-05T13:12:49.892Z,44.85
2023-12-05T13:15:16.176Z,46.50
2023-12-05T13:17:42.506Z,48.55
2023-12-05T13:20:08.806Z,51.65
2023-12-05T13:22:35.123Z,51.70
2023-12-05T13:25:01.559Z,52.92
2023-12-05T13:27:27.916Z,49.92
2023-12-05T13:29:54.299Z,51.03
2023-12-05T13:32:20.557Z,50.80
2023-12-05T13:34:46.870Z,48.30
2023-12-05T13:37:13.172Z,50.22
2023-12-05T13:39:39.470Z,51.88
2023-12-05T13:42:05.763Z,49.55
2023-12-05T13:44:32.045Z,47.35
2023-12-05T13:46:58.409Z,46.83
2023-12-05T13:49:24.820Z,47.85
2023-12-05T13:51:51.209Z,46.30
2023-12-05T13:54:18.738Z,49.88
2023-12-05T13:56:55.003Z,49.90
2023-12-05T13:59:21.281Z,52.97
2023-12-05T14:01:47.686Z,52.85
2023-12-05T14:04:14.470Z,52.55
2023-12-05T14:06:40.940Z,54.90
2023-12-05T14:09:07.277Z,55.97
2023-12-05T14:11:43.541Z,58.22
2023-12-05T14:14:15.832Z,58.17
2023-12-05T14:16:42.149Z,55.33
2023-12-05T14:19:08.857Z,56.58
2023-12-05T14:21:35.290Z,55.03
2023-12-05T14:24:01.572Z,57.58
2023-12-05T14:26:27.906Z,54.50
2023-12-05T14:28:54.149Z,54.33
2023-12-05T14:31:20.448Z,51.78
2023-12-05T14:33:46.858Z,51.13
2023-12-05T14:36:13.199Z,50.85
2023-12-05T14:38:39.535Z,49.75
2023-12-05T14:41:05.836Z,49.60
2023-12-05T14:43:32.083Z,50.53
2023-12-05T14:45:58.505Z,51.25
2023-12-05T14:48:24.912Z,52.38
2023-12-05T14:50:51.250Z,52.83
2023-12-05T14:53:17.635Z,54.20
2023-12-05T14:55:43.936Z,52.22
2023-12-05T14:58:10.295Z,51.83
2023-12-05T15:00:36.588Z,52.13
2023-12-05T15:03:02.990Z,53.53
2023-12-05T15:05:29.369Z,52.47
2023-12-05T15:07:55.762Z,50.58
2023-12-05T15:10:22.053Z,50.90
2023-12-05T15:12:48.449Z,50.00
2023-12-05T15:15:14.706Z,50.05
2023-12-05T15:17:41.280Z,48.95
2023-12-05T15:20:19.810Z,48.97
2023-12-05T15:22:49.784Z,47.30
2023-12-05T15:25:16.031Z,47.17
2023-12-05T15:27:42.330Z,46.65
2023-12-05T15:30:08.601Z,44.80
2023-12-05T15:32:34.930Z,46.08
2023-12-05T15:35:01.274Z,46.30
2023-12-05T15:37:27.536Z,44.10
2023-12-05T15:39:53.868Z,43.80
2023-12-05T15:42:20.181Z,43.78
2023-12-05T15:44:46.545Z,43.65
2023-12-05T15:47:15.325Z,41.90
2023-12-05T15:49:41.957Z,41.22
2023-12-05T15:52:08.299Z,40.33
2023-12-05T15:54:34.665Z,40.85
2023-12-05T15:57:00.988Z,39.33
2023-12-05T15:59:27.311Z,39.70
2023-12-05T16:01:53.717Z,40.13
2023-12-05T16:04:20.041Z,41.08
2023-12-05T16:06:46.346Z,39.70
2023-12-05T16:09:12.641Z,38.33
2023-12-05T16:11:40.512Z,38.30
2023-12-05T16:14:06.924Z,38.45
2023-12-05T16:16:33.260Z,37.13
2023-12-05T16:18:59.570Z,35.13
2023-12-05T16:21:25.941Z,35.97
2023-12-05T16:23:52.225Z,36.13
2023-12-05T16:26:18.526Z,36.38
2023-12-05T16:28:44.845Z,34.22
2023-12-05T16:31:15.675Z,34.25
2023-12-05T16:33:42.092Z,33.15
2023-12-05T16:36:08.414Z,32.15
2023-12-05T16:38:34.906Z,32.17
2023-12-05T16:41:01.181Z,32.10
2023-12-05T16:43:27.461Z,32.08
2023-12-05T16:45:53.738Z,32.08
2023-12-05T16:48:22.720Z,31.55
2023-12-05T16:50:49.034Z,31.55
2023-12-05T16:53:15.461Z,30.70
2023-12-05T16:55:41.694Z,28.88
2023-12-05T16:58:08.029Z,30.17
2023-12-05T17:00:34.441Z,30.17
2023-12-05T17:03:00.837Z,30.30
2023-12-05T17:05:27.474Z,29.42
2023-12-05T17:08:03.794Z,28.42
2023-12-05T17:10:30.086Z,28.90
2023-12-05T17:12:56.782Z,29.00
2023-12-05T17:15:23.098Z,28.25
2023-12-05T17:17:49.535Z,28.38
2023-12-05T17:20:15.818Z,29.27
2023-12-05T17:22:42.065Z,28.52
2023-12-05T17:25:08.436Z,27.80
2023-12-05T17:27:34.788Z,27.67
2023-12-05T17:30:21.240Z,26.80
2023-12-05T17:32:47.533Z,26.08
2023-12-05T17:35:13.906Z,25.60
2023-12-05T17:37:42.200Z,27.08
2023-12-05T17:40:09.120Z,26.70
2023-12-05T17:42:35.531Z,24.75
2023-12-05T17:45:02.046Z,26.83
2023-12-05T17:47:28.588Z,25.25
2023-12-05T17:49:54.935Z,26.33
2023-12-05T17:52:21.183Z,25.08
2023-12-05T17:54:47.477Z,24.25
2023-12-05T17:57:13.784Z,25.85
2023-12-05T17:59:40.059Z,25.27
2023-12-05T18:02:06.433Z,25.20
2023-12-05T18:04:32.887Z,24.05
2023-12-05T18:07:50.075Z,23.02
2023-12-05T18:09:45.920Z,22.98
2023-12-05T18:12:21.801Z,24.02
2023-12-05T18:14:48.618Z,24.42
2023-12-05T18:17:14.911Z,23.38
2023-12-05T18:19:41.545Z,24.23
2023-12-05T18:22:08.442Z,24.17
2023-12-05T18:24:34.749Z,24.98
2023-12-05T18:27:05.073Z,23.17
2023-12-05T18:29:31.510Z,23.30
2023-12-05T18:31:57.755Z,24.17
2023-12-05T18:34:24.143Z,22.77
2023-12-05T18:36:50.575Z,23.63
2023-12-05T18:39:23.940Z,23.67
2023-12-05T18:41:50.320Z,21.83
2023-12-05T18:44:19.591Z,30.70
2023-12-05T18:46:46.239Z,101.70
2023-12-05T18:49:12.551Z,121.30
2023-12-05T18:51:38.893Z,122.57
2023-12-05T18:54:07.187Z,116.97
2023-12-05T18:56:33.485Z,112.95
2023-12-05T18:58:59.739Z,108.72
2023-12-05T19:01:26.103Z,106.60
2023-12-05T19:03:52.788Z,98.10
2023-12-05T19:06:19.179Z,97.35
2023-12-05T19:08:45.487Z,95.80
2023-12-05T19:11:12.067Z,91.50
2023-12-05T19:13:38.418Z,90.53
2023-12-05T19:16:04.753Z,85.57
2023-12-05T19:18:31.211Z,86.05
2023-12-05T19:20:57.673Z,82.03
2023-12-05T19:23:23.976Z,81.50
2023-12-05T19:25:50.353Z,79.95
2023-12-05T19:28:26.587Z,78.68
2023-12-05T19:30:52.983Z,75.68
2023-12-05T19:33:19.382Z,75.75
2023-12-05T19:35:45.987Z,70.50
2023-12-05T19:38:12.274Z,69.88
2023-12-05T19:40:38.718Z,69.80
2023-12-05T19:43:04.999Z,67.38
2023-12-05T19:45:31.322Z,66.85
2023-12-05T19:47:57.821Z,64.65
2023-12-05T19:50:24.144Z,65.28
2023-12-05T19:52:50.545Z,62.40
2023-12-05T19:55:16.841Z,62.60
2023-12-05T19:57:43.195Z,61.67
2023-12-05T20:00:09.449Z,59.00
2023-12-05T20:02:35.777Z,56.47
2023-12-05T20:05:02.161Z,57.38
2023-12-05T20:07:28.516Z,55.55
2023-12-05T20:09:54.815Z,57.10
2023-12-05T20:12:21.142Z,55.13
2023-12-05T20:14:47.407Z,88.32
2023-12-05T20:17:13.653Z,91.78
2023-12-05T20:19:40.060Z,89.15
2023-12-05T20:22:06.608Z,85.88
2023-12-05T20:24:32.975Z,88.22
2023-12-05T20:26:59.331Z,84.05
2023-12-05T20:29:25.782Z,80.80
2023-12-05T20:31:52.303Z,80.00
2023-12-05T20:34:18.956Z,98.70
2023-12-05T20:36:45.370Z,149.48
2023-12-05T20:39:11.751Z,184.48
2023-12-05T20:41:38.313Z,220.93
2023-12-05T20:44:04.646Z,225.30
2023-12-05T20:46:30.974Z,220.13
2023-12-05T20:48:57.320Z,212.98
2023-12-05T20:51:23.656Z,214.30
2023-12-05T20:53:49.888Z,195.52
2023-12-05T20:56:16.179Z,195.10
2023-12-05T20:58:42.711Z,189.07
2023-12-05T21:01:09.190Z,214.93
2023-12-05T21:03:35.620Z,257.42
2023-12-05T21:06:01.927Z,280.92
2023-12-05T21:09:08.782Z,293.45
2023-12-05T21:11:15.287Z,293.38
2023-12-05T21:13:41.516Z,295.50
2023-12-05T21:16:07.832Z,306.38
2023-12-05T21:18:34.309Z,328.27
2023-12-05T21:21:00.934Z,348.85
2023-12-05T21:23:27.860Z,347.52
2023-12-05T21:25:54.316Z,347.17
2023-12-05T21:28:20.621Z,344.83
2023-12-05T21:30:47.012Z,332.70
2023-12-05T21:33:13.936Z,322.45
2023-12-05T21:35:40.972Z,321.55
2023-12-05T21:38:07.350Z,317.05
2023-12-05T21:40:33.585Z,306.30
2023-12-05T21:42:59.907Z,304.05
2023-12-05T21:45:26.238Z,302.63
2023-12-05T21:47:53.044Z,290.38
2023-12-05T21:50:19.375Z,287.73
2023-12-05T21:52:45.939Z,283.23
2023-12-05T21:55:12.287Z,277.45
2023-12-05T21:57:38.570Z,272.05
2023-12-05T22:00:04.856Z,318.95
2023-12-05T22:02:31.123Z,346.80
2023-12-05T22:04:57.463Z,362.20
2023-12-05T22:07:24.034Z,351.02
2023-12-05T22:09:51.226Z,355.23
2023-12-05T22:12:17.703Z,356.25
2023-12-05T22:14:43.982Z,350.65
2023-12-05T22:17:10.271Z,343.58
2023-12-05T22:19:36.608Z,345.95
2023-12-05T22:22:02.977Z,341.60
2023-12-05T22:24:32.762Z,327.20
2023-12-05T22:26:59.649Z,378.98
2023-12-05T22:29:33.950Z,406.13
2023-12-05T22:32:00.318Z,404.65
2023-12-05T22:34:26.769Z,405.48
2023-12-05T22:36:53.092Z,371.85
2023-12-05T22:39:19.741Z,350.08
2023-12-05T22:41:46.153Z,334.85
2023-12-05T22:44:12.523Z,329.65
2023-12-05T22:46:39.048Z,368.23
2023-12-05T22:49:05.592Z,431.40
2023-12-05T22:51:32.180Z,422.55
2023-12-05T22:53:58.566Z,411.02
2023-12-05T22:56:24.839Z,404.35
2023-12-05T22:58:51.284Z,403.75
2023-12-05T23:01:17.718Z,452.45
2023-12-05T23:03:44.251Z,524.63
2023-12-05T23:06:10.716Z,488.98
2023-12-05T23:08:37.096Z,483.55
2023-12-05T23:11:03.663Z,480.67
2023-12-05T23:13:29.941Z,493.48
2023-12-05T23:15:56.988Z,516.10
2023-12-05T23:18:23.273Z,520.45
2023-12-05T23:20:49.548Z,509.25
2023-12-05T23:23:15.807Z,492.48
2023-12-05T23:25:42.077Z,485.85
2023-12-05T23:28:15.406Z,492.38
2023-12-05T23:30:45.302Z,476.30
2023-12-05T23:33:11.580Z,476.67
2023-12-05T23:35:37.858Z,463.35
2023-12-05T23:38:04.368Z,457.70
2023-12-05T23:40:30.702Z,452.67
2023-12-05T23:42:57.127Z,442.45
2023-12-05T23:45:23.431Z,442.98
2023-12-05T23:47:50.911Z,425.98
2023-12-05T23:50:17.240Z,427.63
2023-12-05T23:52:43.586Z,421.27
2023-12-05T23:55:09.922Z,415.92
2023-12-05T23:57:36.365Z,410.13
